Reading Center, Vermont
Current Conditions -  °F | °C
As of 4:54 AM on Sunday 21 Dec 2014 (Local Time) from KVSF Reporting Station
Overcast Overcast  
Wind Chill: 25°   Ceiling: 3900
Heat Index: 25°   Visibility: 8mi
Dew Point: 21°   Wind: 0mph
Humidity: 85%   Direction: NA
Pressure: 30.29"   Gusts: NA
Location:  43.4984°N, 72.5943°W
Report Text: KVSF 210954Z AUTO 00000KT 8SM OVC039 M04/M06 A3029 RMK AO2 SNB09E22 SLP267 P0000 T10391061 TSNO
Loading
Personal Weather Stations






























Interactive Weather Map New forecast layout! Learn more

10-Day Weather Forecast

Advertisements
Track Severe Weather on mobile